Time;durP1;ratioP1;P1;durP2;ratioP2;P2;SDS_P1;SDS_P2;PMS_P1;PMS_P2;Temp;Humidity;BMP_temperature;BMP_pressure;BME280_temperature;BME280_humidity;BME280_pressure;Samples;Min_cycle;Max_cycle;Signal;HPM_P1;HPM_P2
2021/09/12 00:01:22;;;;;;;7.78;4.65;;;;;;;19.51;39.63;99619.59;5050080;28;20079;-37
2021/09/12 00:03:47;;;;;;;9.30;5.03;;;;;;;19.67;38.68;99617.78;5049981;28;20456;-37
2021/09/12 00:06:13;;;;;;;10.50;5.03;;;;;;;19.59;39.06;99612.88;5050170;28;20013;-36
2021/09/12 00:08:38;;;;;;;7.10;4.90;;;;;;;19.40;39.45;99616.09;5049774;28;20059;-37
2021/09/12 00:11:04;;;;;;;8.25;4.60;;;;;;;19.48;39.17;99618.25;5050086;28;20060;-36
2021/09/12 00:13:29;;;;;;;6.55;4.88;;;;;;;19.56;39.06;99614.22;5050134;28;20082;-36
2021/09/12 00:15:55;;;;;;;9.13;4.45;;;;;;;19.50;38.99;99618.00;5049811;28;20090;-36
2021/09/12 00:18:20;;;;;;;7.85;4.55;;;;;;;19.26;39.41;99613.03;5049700;28;20036;-36
2021/09/12 00:20:46;;;;;;;8.02;4.00;;;;;;;19.34;39.11;99619.81;5049983;28;20033;-36
2021/09/12 00:23:11;;;;;;;8.05;4.30;;;;;;;19.52;39.03;99613.94;5050182;28;20095;-36
2021/09/12 00:25:36;;;;;;;10.45;4.07;;;;;;;19.51;39.07;99611.50;5050167;28;20020;-36
2021/09/12 00:28:02;;;;;;;6.18;4.07;;;;;;;19.59;38.89;99615.59;5049863;28;20500;-36
2021/09/12 00:30:27;;;;;;;6.82;4.07;;;;;;;19.49;39.01;99610.97;5050281;28;20047;-36
2021/09/12 00:32:53;;;;;;;6.18;3.78;;;;;;;19.57;38.99;99609.63;5049611;28;20029;-36
2021/09/12 00:35:18;;;;;;;5.60;3.65;;;;;;;19.52;38.94;99603.16;5049728;28;20044;-36
2021/09/12 00:37:47;;;;;;;5.93;3.80;;;;;;;19.54;38.92;99605.59;5049603;28;20480;-36
2021/09/12 00:40:12;;;;;;;6.93;4.05;;;;;;;19.33;39.93;99604.72;5049761;28;20032;-36
2021/09/12 00:42:38;;;;;;;6.30;4.10;;;;;;;19.17;40.50;99617.31;5049508;28;20036;-36
2021/09/12 00:45:04;;;;;;;6.75;4.10;;;;;;;19.21;40.18;99618.44;5049596;28;20029;-36
2021/09/12 00:47:29;;;;;;;5.80;4.10;;;;;;;19.23;40.56;99616.28;5049146;28;20035;-36
2021/09/12 00:49:54;;;;;;;6.93;3.92;;;;;;;19.22;41.04;99622.75;5049488;28;20492;-36
2021/09/12 00:52:20;;;;;;;8.07;4.10;;;;;;;19.31;41.77;99614.97;5049437;28;20025;-37
2021/09/12 00:54:47;;;;;;;7.72;4.53;;;;;;;19.23;41.55;99621.69;5048570;28;20036;-37
2021/09/12 00:57:13;;;;;;;5.70;3.88;;;;;;;19.43;41.18;99626.34;5051910;28;20025;-36
2021/09/12 00:59:40;;;;;;;8.27;4.38;;;;;;;19.55;40.73;99620.69;5053364;28;20151;-36
2021/09/12 01:02:06;;;;;;;7.07;4.13;;;;;;;19.57;40.55;99612.34;5053212;28;20025;-36
2021/09/12 01:04:32;;;;;;;7.32;4.20;;;;;;;19.62;40.79;99615.06;5053038;28;20033;-36
2021/09/12 01:06:58;;;;;;;5.40;4.15;;;;;;;19.59;40.38;99615.59;5053350;28;20032;-36
2021/09/12 01:09:24;;;;;;;9.20;4.10;;;;;;;19.63;40.56;99611.28;5053051;28;20049;-36
2021/09/12 01:11:49;;;;;;;6.10;4.07;;;;;;;19.60;40.58;99607.22;5053262;28;20033;-36
2021/09/12 01:14:15;;;;;;;7.40;4.30;;;;;;;19.56;40.62;99611.53;5052939;28;20037;-36
2021/09/12 01:16:40;;;;;;;6.90;4.20;;;;;;;19.58;40.66;99609.38;5052941;28;20484;-36
2021/09/12 01:19:06;;;;;;;9.75;4.50;;;;;;;19.52;40.83;99613.94;5053058;28;20029;-36
2021/09/12 01:21:32;;;;;;;8.88;4.20;;;;;;;19.49;40.92;99610.97;5053104;28;20460;-36
2021/09/12 01:23:58;;;;;;;10.82;4.50;;;;;;;19.49;40.60;99611.78;5053081;28;20036;-36
2021/09/12 01:26:25;;;;;;;6.13;4.00;;;;;;;19.35;40.71;99605.28;5052939;28;20037;-36
2021/09/12 01:28:51;;;;;;;8.45;4.55;;;;;;;19.44;40.41;99610.94;5052885;28;20640;-37
2021/09/12 01:31:28;;;;;;;8.80;5.10;;;;;;;19.42;40.54;99615.78;5052567;28;20033;-36
2021/09/12 01:33:54;;;;;;;7.78;5.05;;;;;;;19.31;40.95;99621.16;5052760;28;20112;-36
2021/09/12 01:36:20;;;;;;;11.68;5.47;;;;;;;19.38;40.30;99609.31;5052297;28;20021;-36
2021/09/12 01:38:46;;;;;;;10.02;5.95;;;;;;;19.25;40.46;99603.34;5052680;28;20358;-36
2021/09/12 01:41:11;;;;;;;9.30;6.22;;;;;;;19.30;40.09;99611.44;5052480;28;20035;-35
2021/09/12 01:43:51;;;;;;;8.25;5.80;;;;;;;19.31;40.33;99610.38;5052719;28;20048;-36
2021/09/12 01:46:16;;;;;;;10.43;5.90;;;;;;;19.31;39.94;99615.78;5053049;28;20017;-36
2021/09/12 01:48:42;;;;;;;8.13;6.00;;;;;;;19.28;39.92;99613.59;5052809;28;20546;-36
2021/09/12 01:51:07;;;;;;;8.05;5.75;;;;;;;19.14;40.18;99599.78;5051905;28;20341;-37
2021/09/12 01:53:33;;;;;;;7.72;5.70;;;;;;;19.10;40.59;99606.00;5052873;28;20025;-37
2021/09/12 01:55:59;;;;;;;9.13;6.00;;;;;;;19.01;40.95;99604.84;5052649;28;20029;-37
2021/09/12 01:58:27;;;;;;;9.63;5.90;;;;;;;18.86;41.30;99606.38;5052478;28;20032;-37
2021/09/12 02:00:53;;;;;;;8.05;5.15;;;;;;;18.89;41.91;99607.78;5052799;28;20043;-37
2021/09/12 02:03:18;;;;;;;8.98;5.90;;;;;;;18.84;41.67;99599.66;5052679;28;20489;-37
2021/09/12 02:05:44;;;;;;;9.00;5.70;;;;;;;18.93;41.49;99598.09;5052959;28;20028;-37
2021/09/12 02:08:09;;;;;;;10.10;5.65;;;;;;;18.98;41.49;99590.00;5051642;28;20401;-37
2021/09/12 02:10:35;;;;;;;7.75;5.60;;;;;;;19.02;41.09;99591.13;5051000;28;20045;-35
2021/09/12 02:13:00;;;;;;;10.13;6.10;;;;;;;19.08;40.83;99595.47;5052259;28;20090;-36
2021/09/12 02:15:25;;;;;;;8.93;5.85;;;;;;;19.03;40.98;99595.44;5052491;28;20025;-37
2021/09/12 02:17:51;;;;;;;9.88;5.20;;;;;;;19.08;41.04;99595.47;5052478;28;20025;-35
2021/09/12 02:20:16;;;;;;;8.98;5.60;;;;;;;18.97;40.77;99588.41;5052575;28;20020;-36
2021/09/12 02:22:42;;;;;;;9.77;5.22;;;;;;;19.03;40.85;99592.72;5052276;28;20066;-36
2021/09/12 02:25:08;;;;;;;10.13;5.28;;;;;;;18.96;40.45;99592.16;5052468;28;20025;-35
2021/09/12 02:27:33;;;;;;;13.65;5.40;;;;;;;18.85;40.33;99590.47;5052494;28;20020;-36
2021/09/12 02:29:59;;;;;;;6.50;4.88;;;;;;;18.91;41.10;99597.53;5052214;28;20028;-36
2021/09/12 02:32:25;;;;;;;8.23;4.78;;;;;;;18.91;40.03;99592.16;5052197;28;20025;-36
2021/09/12 02:34:50;;;;;;;7.97;4.60;;;;;;;18.95;40.31;99599.44;5051896;28;20484;-36
2021/09/12 02:37:16;;;;;;;7.20;4.75;;;;;;;18.96;39.78;99594.84;5052011;28;20045;-36
2021/09/12 02:39:42;;;;;;;7.32;4.53;;;;;;;18.94;40.17;99588.91;5052069;28;20025;-36
2021/09/12 02:42:07;;;;;;;8.10;4.75;;;;;;;18.91;40.35;99598.34;5051483;28;20099;-36
2021/09/12 02:44:33;;;;;;;7.72;4.18;;;;;;;18.93;39.98;99593.50;5051726;28;20053;-36
2021/09/12 02:46:58;;;;;;;8.80;4.10;;;;;;;18.77;40.26;99589.06;5051760;28;20060;-36
2021/09/12 02:49:23;;;;;;;5.32;3.85;;;;;;;18.80;41.24;99590.44;5051952;28;20083;-36
2021/09/12 02:51:49;;;;;;;9.85;4.70;;;;;;;18.70;40.72;99589.31;5051814;28;20025;-37
2021/09/12 02:54:14;;;;;;;5.22;4.00;;;;;;;18.27;41.12;99593.84;5051637;28;20029;-36
2021/09/12 02:56:40;;;;;;;6.97;3.95;;;;;;;18.43;41.10;99588.56;5051062;28;20040;-36
2021/09/12 02:59:05;;;;;;;6.40;4.05;;;;;;;18.53;41.09;99592.16;5051183;28;20032;-36
2021/09/12 03:01:31;;;;;;;6.53;4.20;;;;;;;18.67;40.62;99589.81;5051629;28;20539;-36
2021/09/12 03:03:56;;;;;;;5.30;3.70;;;;;;;18.74;39.97;99593.09;5051122;28;20024;-36
2021/09/12 03:06:21;;;;;;;5.38;3.95;;;;;;;18.35;40.96;99593.41;5051443;28;20139;-36
2021/09/12 03:08:47;;;;;;;6.40;3.95;;;;;;;18.41;40.96;99596.09;5050778;28;20091;-36
2021/09/12 03:11:12;;;;;;;5.95;3.80;;;;;;;18.43;40.86;99591.28;5051315;28;20374;-36
2021/09/12 03:13:38;;;;;;;5.57;4.10;;;;;;;18.56;40.92;99598.91;5051350;28;20028;-36
2021/09/12 03:16:03;;;;;;;6.65;4.00;;;;;;;18.42;41.42;99601.25;5051108;28;20025;-36
2021/09/12 03:18:29;;;;;;;6.82;3.83;;;;;;;18.39;40.92;99615.25;5051190;28;20024;-36
2021/09/12 03:20:54;;;;;;;5.63;3.70;;;;;;;18.34;40.83;99613.31;5051256;28;20032;-36
2021/09/12 03:23:20;;;;;;;5.53;3.67;;;;;;;18.48;40.82;99624.44;5051003;28;20029;-36
2021/09/12 03:25:45;;;;;;;4.75;3.50;;;;;;;18.65;40.67;99610.03;5050985;28;20469;-36
2021/09/12 03:28:11;;;;;;;4.85;3.40;;;;;;;18.74;39.92;99616.53;5050624;28;20037;-36
2021/09/12 03:30:36;;;;;;;5.75;3.50;;;;;;;18.72;40.24;99613.31;5051001;28;20418;-36
2021/09/12 03:33:02;;;;;;;5.35;3.67;;;;;;;18.70;40.63;99616.25;5050848;28;20405;-36
2021/09/12 03:35:27;;;;;;;5.45;3.60;;;;;;;18.74;40.38;99606.56;5051220;28;20029;-36
2021/09/12 03:37:53;;;;;;;7.82;3.80;;;;;;;18.62;40.28;99608.66;5040796;28;20500;-36
2021/09/12 03:40:18;;;;;;;5.63;3.53;;;;;;;18.67;40.35;99610.56;5034315;28;20029;-36
2021/09/12 03:42:43;;;;;;;4.95;3.63;;;;;;;18.68;40.57;99612.19;5042920;28;20030;-37
2021/09/12 03:45:09;;;;;;;7.82;3.70;;;;;;;18.65;40.60;99608.13;5030855;28;20021;-37
2021/09/12 03:47:35;;;;;;;5.65;3.88;;;;;;;18.67;40.83;99613.25;5040469;28;20021;-36
2021/09/12 03:50:00;;;;;;;6.80;3.58;;;;;;;18.64;41.06;99617.31;5050758;28;20020;-36
2021/09/12 03:52:26;;;;;;;6.18;3.75;;;;;;;18.53;41.04;99621.00;5050888;28;20032;-36
2021/09/12 03:54:51;;;;;;;6.78;3.58;;;;;;;18.48;41.23;99616.38;5050549;28;20087;-36
2021/09/12 03:57:16;;;;;;;7.28;3.70;;;;;;;18.50;41.40;99616.91;5050552;28;20071;-36
2021/09/12 03:59:42;;;;;;;10.35;3.97;;;;;;;18.42;41.01;99612.00;5050552;28;20028;-36
2021/09/12 04:02:07;;;;;;;7.65;4.10;;;;;;;18.34;41.57;99616.00;5050825;28;20025;-36
2021/09/12 04:04:33;;;;;;;5.40;3.63;;;;;;;17.92;43.28;99615.91;5050787;28;20017;-36
2021/09/12 04:06:58;;;;;;;6.05;3.45;;;;;;;17.93;42.95;99618.38;5050685;28;20096;-36
2021/09/12 04:09:24;;;;;;;5.38;3.65;;;;;;;17.97;42.70;99615.94;5050297;28;20049;-37
2021/09/12 04:11:49;;;;;;;5.68;4.15;;;;;;;18.09;42.72;99621.19;5050630;28;20029;-36
2021/09/12 04:14:15;;;;;;;11.10;3.80;;;;;;;18.39;42.43;99626.03;5050737;28;20500;-36
2021/09/12 04:16:40;;;;;;;5.35;3.67;;;;;;;18.51;42.14;99629.31;5050834;28;20120;-37
2021/09/12 04:19:05;;;;;;;4.75;3.40;;;;;;;18.46;42.43;99631.97;5050794;28;20035;-36
2021/09/12 04:21:31;;;;;;;6.75;3.63;;;;;;;18.73;41.73;99631.91;5050754;28;20025;-37
2021/09/12 04:23:56;;;;;;;23.45;15.40;;;;;;;18.62;41.46;99629.38;5049414;28;20017;-37
2021/09/12 04:26:22;;;;;;;17.83;11.30;;;;;;;18.88;41.80;99630.41;5050494;28;20028;-36
2021/09/12 04:28:47;;;;;;;19.25;13.75;;;;;;;19.05;40.64;99632.91;5050707;28;20021;-36
2021/09/12 04:31:13;;;;;;;15.40;9.27;;;;;;;19.18;40.13;99632.44;5053342;28;20032;-36
2021/09/12 04:33:38;;;;;;;8.43;5.40;;;;;;;19.31;40.11;99633.84;5054274;28;20104;-36
2021/09/12 04:36:04;;;;;;;7.72;3.80;;;;;;;19.42;39.84;99635.53;5054246;28;20055;-37
2021/09/12 04:38:29;;;;;;;5.25;3.67;;;;;;;19.47;39.93;99640.09;5054436;28;20490;-37
2021/09/12 04:40:55;;;;;;;5.82;3.40;;;;;;;19.62;39.75;99639.34;5053876;28;20040;-37
2021/09/12 04:43:20;;;;;;;5.47;3.42;;;;;;;19.76;39.84;99635.09;5054464;28;20457;-37
2021/09/12 04:45:46;;;;;;;7.75;3.72;;;;;;;19.85;40.00;99630.78;5054321;28;20107;-37
2021/09/12 04:48:11;;;;;;;10.07;3.47;;;;;;;19.98;38.95;99634.88;5054052;28;20029;-37
2021/09/12 04:50:37;;;;;;;11.55;7.30;;;;;;;20.19;39.13;99638.38;5054146;28;20027;-37
2021/09/12 04:53:02;;;;;;;35.15;25.35;;;;;;;20.37;38.58;99638.94;5054039;28;20017;-37
2021/09/12 04:55:27;;;;;;;44.90;30.42;;;;;;;20.62;38.63;99638.94;5053721;28;20044;-37
2021/09/12 04:57:54;;;;;;;10.13;6.28;;;;;;;20.92;37.33;99631.03;5053938;28;20033;-37
2021/09/12 05:00:19;;;;;;;13.70;8.75;;;;;;;21.09;37.54;99632.38;5054057;28;20060;-37
2021/09/12 05:02:44;;;;;;;8.88;4.75;;;;;;;21.39;36.99;99627.91;5053912;28;20036;-37
2021/09/12 05:05:10;;;;;;;7.07;4.50;;;;;;;21.66;36.49;99637.53;5053746;28;20447;-37
2021/09/12 05:07:36;;;;;;;9.77;4.47;;;;;;;21.72;36.57;99636.41;5053833;28;20017;-37
2021/09/12 05:10:03;;;;;;;6.57;4.00;;;;;;;22.05;35.72;99636.75;5053050;28;20097;-37
2021/09/12 05:12:28;;;;;;;9.73;3.83;;;;;;;22.48;34.72;99634.25;5053565;28;20055;-37
2021/09/12 05:14:55;;;;;;;6.47;4.13;;;;;;;22.91;34.27;99639.81;5053584;28;20401;-36
2021/09/12 05:17:20;;;;;;;5.95;4.07;;;;;;;23.45;33.60;99635.13;5053274;28;20049;-36
2021/09/12 05:19:47;;;;;;;8.38;3.33;;;;;;;23.64;32.95;99643.28;5053272;28;20036;-37
2021/09/12 05:22:12;;;;;;;9.07;3.95;;;;;;;23.79;32.62;99640.38;5052962;28;20476;-37
2021/09/12 05:24:38;;;;;;;8.13;3.88;;;;;;;24.04;32.19;99634.88;5052883;28;20036;-37
2021/09/12 05:27:03;;;;;;;6.78;3.75;;;;;;;24.34;31.44;99633.56;5053035;28;20500;-37
2021/09/12 05:29:29;;;;;;;9.05;3.45;;;;;;;24.61;31.20;99637.50;5053342;28;20033;-35
2021/09/12 05:31:54;;;;;;;9.63;4.10;;;;;;;24.62;30.73;99636.38;5052956;28;20051;-35
2021/09/12 05:34:20;;;;;;;6.00;3.90;;;;;;;24.78;29.87;99640.44;5052829;28;20029;-37
2021/09/12 05:36:45;;;;;;;22.90;16.10;;;;;;;24.93;29.33;99640.16;5052240;28;20041;-36
2021/09/12 05:39:11;;;;;;;19.02;13.02;;;;;;;25.38;29.18;99633.31;5052833;28;20354;-37
2021/09/12 05:41:36;;;;;;;7.47;4.80;;;;;;;25.89;28.27;99640.34;5052989;28;20036;-36
2021/09/12 05:44:02;;;;;;;5.93;3.65;;;;;;;26.30;27.42;99640.22;5053143;28;20029;-37
2021/09/12 05:46:27;;;;;;;8.40;3.70;;;;;;;26.66;27.00;99644.00;5052660;28;20550;-37
2021/09/12 05:48:53;;;;;;;5.35;3.47;;;;;;;26.74;27.44;99636.97;5052545;28;20530;-38
2021/09/12 05:51:18;;;;;;;6.80;3.60;;;;;;;27.10;26.51;99637.56;5052718;28;20039;-36
2021/09/12 05:53:44;;;;;;;6.15;3.67;;;;;;;27.35;25.79;99639.94;5053063;28;20040;-37
2021/09/12 05:56:09;;;;;;;7.50;3.63;;;;;;;26.81;26.26;99638.13;5052503;28;20033;-37
2021/09/12 05:58:35;;;;;;;5.18;3.30;;;;;;;26.94;25.82;99639.16;5052683;28;20029;-37
2021/09/12 06:01:00;;;;;;;4.70;3.55;;;;;;;26.75;26.04;99642.09;5053030;28;20374;-37
2021/09/12 06:03:26;;;;;;;10.13;6.13;;;;;;;26.44;26.47;99642.84;5052228;28;20028;-38
2021/09/12 06:05:51;;;;;;;5.70;3.30;;;;;;;26.48;26.90;99638.41;5052431;28;20025;-36
2021/09/12 06:08:17;;;;;;;5.20;3.38;;;;;;;26.03;26.97;99643.06;5052469;28;20484;-36
2021/09/12 06:10:42;;;;;;;6.22;3.58;;;;;;;26.76;26.28;99638.25;5052349;28;20057;-36
2021/09/12 06:13:08;;;;;;;6.65;3.50;;;;;;;27.43;25.75;99644.59;5052355;28;20036;-36
2021/09/12 06:15:33;;;;;;;7.68;4.15;;;;;;;28.20;24.89;99645.00;5052597;28;20033;-36
2021/09/12 06:17:58;;;;;;;6.78;4.03;;;;;;;28.42;24.89;99625.63;5052344;28;20029;-37
2021/09/12 06:20:24;;;;;;;5.97;3.53;;;;;;;28.70;24.67;99658.09;5052501;28;20511;-36
2021/09/12 06:22:51;;;;;;;4.45;3.40;;;;;;;29.09;23.84;99653.41;5052501;28;20040;-37
2021/09/12 06:25:16;;;;;;;6.25;3.20;;;;;;;29.20;23.92;99653.91;5051924;28;20025;-36
2021/09/12 06:27:42;;;;;;;9.65;3.47;;;;;;;29.37;23.43;99650.25;5051994;28;20032;-37
2021/09/12 06:30:09;;;;;;;8.55;3.78;;;;;;;29.20;23.93;99649.22;5050979;28;20025;-37
2021/09/12 06:32:35;;;;;;;4.78;3.33;;;;;;;29.81;23.30;99642.56;5051999;28;20416;-36
2021/09/12 06:35:01;;;;;;;7.22;4.00;;;;;;;30.42;23.16;99650.25;5051966;28;20029;-37
2021/09/12 06:37:26;;;;;;;6.68;3.80;;;;;;;30.82;22.30;99648.84;5051798;28;20039;-37
2021/09/12 06:39:52;;;;;;;6.40;4.07;;;;;;;31.10;22.53;99647.06;5051969;28;20040;-38
2021/09/12 06:42:17;;;;;;;7.72;3.72;;;;;;;31.16;22.21;99644.88;5050733;28;20488;-37
2021/09/12 06:44:42;;;;;;;6.47;3.33;;;;;;;31.39;21.84;99642.44;5051961;28;20025;-36
2021/09/12 06:47:08;;;;;;;5.03;3.42;;;;;;;31.75;21.67;99647.09;5051365;28;20055;-37
2021/09/12 06:49:33;;;;;;;6.55;3.47;;;;;;;31.57;22.60;99643.03;5051476;28;20417;-37
2021/09/12 06:52:00;;;;;;;8.18;4.10;;;;;;;31.69;22.22;99645.75;5051024;28;20088;-37
2021/09/12 06:54:26;;;;;;;6.32;3.70;;;;;;;31.94;21.91;99631.91;5050463;28;20056;-36
2021/09/12 06:56:51;;;;;;;6.53;4.07;;;;;;;31.91;22.17;99640.84;5050956;28;20056;-37
2021/09/12 06:59:17;;;;;;;7.05;3.67;;;;;;;32.03;22.17;99640.84;5050591;28;20460;-37
2021/09/12 07:01:43;;;;;;;7.68;4.18;;;;;;;32.18;21.95;99635.72;5051256;28;20025;-37
2021/09/12 07:04:08;;;;;;;7.00;3.70;;;;;;;32.45;21.75;99637.66;5051005;28;20068;-37
2021/09/12 07:06:33;;;;;;;5.70;3.83;;;;;;;32.71;21.17;99652.88;5051373;28;20024;-37
2021/09/12 07:08:59;;;;;;;7.18;4.10;;;;;;;32.84;21.00;99634.31;5050937;28;20025;-37
2021/09/12 07:11:24;;;;;;;5.25;4.10;;;;;;;32.76;21.32;99643.56;5051290;28;20040;-37
2021/09/12 07:13:50;;;;;;;5.57;3.90;;;;;;;32.31;21.20;99640.03;5051320;28;20484;-37
2021/09/12 07:16:15;;;;;;;15.80;10.50;;;;;;;32.42;20.93;99635.59;5050930;28;20039;-38
2021/09/12 07:18:41;;;;;;;12.20;9.07;;;;;;;32.57;20.92;99636.81;5051583;28;20029;-38
2021/09/12 07:21:06;;;;;;;10.20;6.15;;;;;;;32.03;21.45;99631.81;5051004;28;20040;-38
2021/09/12 07:23:32;;;;;;;10.05;4.07;;;;;;;31.60;21.33;99628.56;5051263;28;20036;-37
2021/09/12 07:25:57;;;;;;;6.60;4.30;;;;;;;31.79;20.90;99629.91;5051056;28;20017;-37
2021/09/12 07:28:23;;;;;;;7.43;4.30;;;;;;;32.54;20.20;99634.75;5044423;28;20036;-37
2021/09/12 07:30:48;;;;;;;11.38;5.70;;;;;;;32.69;20.40;99633.97;5050624;28;20063;-38
2021/09/12 07:33:14;;;;;;;58.85;39.78;;;;;;;33.04;19.83;99629.69;5050632;28;20548;-37
2021/09/12 07:35:39;;;;;;;7.38;5.15;;;;;;;33.40;19.42;99625.81;5041743;28;20021;-37
2021/09/12 07:38:05;;;;;;;10.15;4.15;;;;;;;33.57;19.36;99626.59;5045401;28;20078;-37
2021/09/12 07:40:30;;;;;;;4.85;4.03;;;;;;;34.13;18.79;99623.38;5051174;28;20033;-37
2021/09/12 07:42:55;;;;;;;6.35;4.20;;;;;;;34.16;18.68;99624.66;5050779;28;20025;-37
2021/09/12 07:45:21;;;;;;;6.18;3.75;;;;;;;34.12;18.57;99621.81;5050846;28;20032;-38
2021/09/12 07:47:46;;;;;;;4.45;3.25;;;;;;;34.29;18.47;99617.81;5050550;28;20032;-37
2021/09/12 07:50:12;;;;;;;5.68;3.40;;;;;;;34.49;17.99;99617.75;5050094;28;20024;-37
2021/09/12 07:52:42;;;;;;;3.90;3.28;;;;;;;34.72;17.26;99617.78;5053351;28;20495;-38
2021/09/12 07:55:11;;;;;;;7.32;3.92;;;;;;;35.04;17.50;99612.75;5051266;28;20070;-37
2021/09/12 07:57:36;;;;;;;7.20;3.53;;;;;;;35.08;17.09;99608.06;5047666;28;20020;-38
2021/09/12 08:00:04;;;;;;;6.43;3.60;;;;;;;34.26;16.71;99619.31;5051158;28;20369;-37
2021/09/12 08:02:29;;;;;;;4.90;3.25;;;;;;;33.82;17.89;99616.88;5050471;28;20054;-37
2021/09/12 08:04:54;;;;;;;6.20;3.60;;;;;;;33.62;18.11;99612.47;5049151;28;20021;-37
2021/09/12 08:07:20;;;;;;;8.45;5.40;;;;;;;33.74;17.90;99608.81;5055175;28;20021;-37
2021/09/12 08:09:45;;;;;;;6.50;3.90;;;;;;;33.34;17.99;99607.16;5053641;28;20041;-38
2021/09/12 08:12:11;;;;;;;7.63;3.40;;;;;;;33.28;17.89;99615.72;5054474;28;20025;-50
2021/09/12 08:14:37;;;;;;;4.80;3.10;;;;;;;33.57;18.00;99610.03;5054598;28;20052;-51
2021/09/12 08:17:03;;;;;;;5.30;3.30;;;;;;;33.85;17.67;99607.88;5055170;28;20335;-51
2021/09/12 08:19:28;;;;;;;5.35;3.40;;;;;;;34.08;17.57;99598.84;5053653;28;20021;-51
2021/09/12 08:21:53;;;;;;;8.35;3.80;;;;;;;33.69;17.74;99604.41;5053165;28;20036;-51
2021/09/12 08:24:19;;;;;;;5.95;3.50;;;;;;;34.11;17.33;99591.81;5052372;28;20029;-51
2021/09/12 08:26:44;;;;;;;6.40;3.28;;;;;;;33.64;17.41;99601.91;5053601;28;20025;-51
2021/09/12 08:29:10;;;;;;;8.32;3.58;;;;;;;34.36;16.75;99601.34;5053556;28;20036;-49
2021/09/12 08:31:35;;;;;;;9.55;3.95;;;;;;;34.69;16.73;99591.69;5051987;28;20033;-51
2021/09/12 08:34:01;;;;;;;6.93;3.58;;;;;;;34.27;17.51;99592.50;5053236;28;20024;-51
2021/09/12 08:36:26;;;;;;;7.85;3.88;;;;;;;34.59;17.32;99586.75;5053252;28;20040;-49
2021/09/12 08:38:52;;;;;;;7.50;3.78;;;;;;;35.28;16.63;99594.97;5052197;28;20021;-51
2021/09/12 08:41:18;;;;;;;6.45;3.75;;;;;;;34.78;17.34;99580.38;5053719;28;20496;-50
2021/09/12 08:43:44;;;;;;;5.97;3.83;;;;;;;34.18;17.37;99575.41;5052584;28;20111;-52
2021/09/12 08:46:09;;;;;;;5.85;3.58;;;;;;;34.03;17.95;99569.59;5052131;28;20428;-52
2021/09/12 08:48:36;;;;;;;6.93;3.85;;;;;;;35.00;17.08;99560.19;5032543;28;20021;-52
2021/09/12 08:51:01;;;;;;;5.75;3.55;;;;;;;35.74;16.53;99572.66;5032637;28;20031;-52
2021/09/12 08:53:27;;;;;;;13.45;4.43;;;;;;;35.02;17.02;99568.09;5034145;28;20330;-53
2021/09/12 08:55:52;;;;;;;9.88;3.97;;;;;;;35.77;16.77;99573.84;5033912;28;20448;-50
2021/09/12 08:58:18;;;;;;;9.27;4.40;;;;;;;36.26;17.54;99561.72;5033635;28;20048;-50
2021/09/12 09:00:46;;;;;;;7.63;3.70;;;;;;;35.54;16.69;99569.22;5034164;28;20032;-52
2021/09/12 09:03:12;;;;;;;5.35;3.90;;;;;;;34.74;17.82;99560.97;5053604;28;20107;-52
2021/09/12 09:05:40;;;;;;;6.75;4.70;;;;;;;34.94;17.37;99556.16;5053773;28;20500;-52
2021/09/12 09:08:15;;;;;;;11.38;4.90;;;;;;;35.16;16.86;99559.22;5053945;28;20033;-52
2021/09/12 09:10:48;;;;;;;7.75;3.97;;;;;;;35.13;17.22;99557.19;5053005;28;20076;-52
2021/09/12 09:13:34;;;;;;;4.80;4.03;;;;;;;35.38;17.18;99550.06;5053288;28;20434;-50
2021/09/12 09:16:00;;;;;;;6.80;4.00;;;;;;;35.66;17.11;99548.00;5052201;28;20029;-52
2021/09/12 09:18:39;;;;;;;10.05;4.35;;;;;;;35.09;16.93;99548.88;5053373;28;20035;-52
2021/09/12 09:21:27;;;;;;;8.82;4.65;;;;;;;35.50;17.34;99543.47;5053140;28;20059;-51
2021/09/12 09:24:21;;;;;;;8.00;4.07;;;;;;;35.78;16.64;99547.78;5052995;28;20108;-50
2021/09/12 09:26:51;;;;;;;7.18;4.10;;;;;;;36.23;17.07;99540.31;5052778;28;20044;-52
2021/09/12 09:29:42;;;;;;;6.25;4.38;;;;;;;36.26;16.03;99542.34;5053280;28;20025;-51
2021/09/12 09:32:12;;;;;;;7.63;4.50;;;;;;;36.37;16.16;99540.47;5052967;28;20032;-51
2021/09/12 09:34:39;;;;;;;7.22;4.70;;;;;;;36.01;16.89;99537.34;5053040;28;20023;-48
2021/09/12 09:37:09;;;;;;;9.43;5.60;;;;;;;36.25;16.26;99539.94;5051667;28;20049;-52
2021/09/12 09:39:41;;;;;;;9.82;5.38;;;;;;;35.64;16.74;99537.31;5052113;28;20480;-51
2021/09/12 09:42:07;;;;;;;7.88;5.18;;;;;;;35.91;17.32;99529.75;5051471;28;20029;-52
2021/09/12 09:44:32;;;;;;;11.05;5.10;;;;;;;35.85;17.28;99527.69;5035460;28;20485;-52
2021/09/12 09:47:10;;;;;;;10.07;5.75;;;;;;;36.12;16.65;99525.56;5037574;28;20088;-51
2021/09/12 09:49:37;;;;;;;9.60;5.18;;;;;;;36.24;16.76;99524.53;5053079;28;20094;-51
2021/09/12 09:52:03;;;;;;;7.70;5.03;;;;;;;36.15;16.92;99520.06;5049298;28;20517;-49
2021/09/12 09:54:33;;;;;;;9.13;5.05;;;;;;;36.62;15.98;99523.25;5034601;28;20083;-53
2021/09/12 09:56:59;;;;;;;8.55;5.00;;;;;;;36.54;16.41;99519.63;5032057;28;20049;-51
2021/09/12 09:59:25;;;;;;;9.48;4.47;;;;;;;35.33;16.69;99511.66;5035571;28;20029;-50
2021/09/12 10:01:51;;;;;;;9.40;4.90;;;;;;;35.61;16.21;99511.19;5035256;28;20037;-52
2021/09/12 10:04:26;;;;;;;7.88;5.00;;;;;;;35.56;16.46;99510.75;5041083;28;20031;-49
2021/09/12 10:06:52;;;;;;;8.88;4.88;;;;;;;35.84;16.11;99501.97;5052500;28;20550;-52
2021/09/12 10:09:17;;;;;;;7.57;5.00;;;;;;;36.08;16.50;99503.41;5052507;28;20049;-50
2021/09/12 10:11:51;;;;;;;8.10;4.63;;;;;;;36.05;16.99;99493.09;5051023;28;20029;-51
2021/09/12 10:14:18;;;;;;;12.65;5.32;;;;;;;35.70;16.62;99494.34;5049850;28;20028;-52
2021/09/12 10:16:44;;;;;;;9.43;5.57;;;;;;;35.27;17.36;99493.81;5032200;28;20028;-48
2021/09/12 10:19:09;;;;;;;8.48;5.00;;;;;;;36.22;16.26;99493.66;5048651;28;20401;-51
2021/09/12 10:21:35;;;;;;;7.60;4.90;;;;;;;35.95;16.37;99485.50;5049471;28;20024;-49
2021/09/12 10:24:07;;;;;;;11.32;5.20;;;;;;;36.11;16.11;99479.69;5047472;28;20462;-51
2021/09/12 10:26:38;;;;;;;7.80;5.60;;;;;;;36.94;15.83;99492.19;5048483;28;20024;-52
2021/09/12 10:29:04;;;;;;;10.07;5.25;;;;;;;36.17;16.21;99481.72;5047759;28;20591;-51
2021/09/12 10:31:32;;;;;;;8.60;4.97;;;;;;;36.62;15.70;99486.44;5048370;28;20525;-52
2021/09/12 10:34:10;;;;;;;8.15;5.55;;;;;;;36.39;15.62;99481.91;5048394;28;20110;-49
2021/09/12 10:36:37;;;;;;;9.93;5.55;;;;;;;36.73;15.81;99482.56;5048598;28;20033;-51
2021/09/12 10:39:20;;;;;;;9.80;6.18;;;;;;;37.17;15.03;99478.06;5049702;28;20150;-51
2021/09/12 10:42:17;;;;;;;9.70;5.63;;;;;;;36.89;14.92;99476.69;5051429;28;20036;-50
2021/09/12 10:44:43;;;;;;;9.55;5.15;;;;;;;36.35;15.72;99461.72;5051350;28;20485;-52
2021/09/12 10:47:09;;;;;;;7.60;5.32;;;;;;;36.72;15.43;99461.56;5051317;28;20025;-49
2021/09/12 10:49:35;;;;;;;7.72;4.88;;;;;;;36.45;15.55;99469.28;5051388;28;20031;-51
2021/09/12 10:52:00;;;;;;;8.80;5.30;;;;;;;36.94;15.60;99464.47;5051132;28;20393;-51
2021/09/12 10:54:26;;;;;;;7.43;4.97;;;;;;;37.51;14.94;99467.47;5050642;28;20039;-50
2021/09/12 10:57:07;;;;;;;6.72;4.88;;;;;;;37.33;14.45;99456.31;5051118;28;20477;-51
2021/09/12 10:59:32;;;;;;;6.35;5.03;;;;;;;36.07;15.50;99457.50;5050790;28;20086;-53
2021/09/12 11:01:58;;;;;;;11.07;5.40;;;;;;;34.36;17.18;99462.50;5051961;28;20420;-51
2021/09/12 11:04:29;;;;;;;9.20;5.63;;;;;;;34.56;16.88;99450.19;5050809;28;20029;-51
2021/09/12 11:07:04;;;;;;;10.77;5.30;;;;;;;35.28;16.61;99456.72;5049641;28;20457;-50
2021/09/12 11:09:29;;;;;;;8.93;5.45;;;;;;;36.11;16.52;99444.47;5050977;28;20052;-51
2021/09/12 11:11:56;;;;;;;12.77;5.10;;;;;;;36.80;15.81;99448.53;5050665;28;20094;-50
2021/09/12 11:14:22;;;;;;;7.35;5.38;;;;;;;37.52;15.52;99438.50;5050765;28;20025;-52
2021/09/12 11:16:47;;;;;;;10.88;5.43;;;;;;;36.49;15.38;99447.16;5050255;28;20036;-52
2021/09/12 11:19:14;;;;;;;8.05;5.15;;;;;;;36.00;15.88;99429.75;5050863;28;20060;-51
2021/09/12 11:21:44;;;;;;;10.10;5.60;;;;;;;35.92;16.34;99434.44;5050553;28;20029;-52
2021/09/12 11:24:15;;;;;;;11.23;5.68;;;;;;;36.14;16.30;99426.31;5050382;28;20053;-51
2021/09/12 11:27:06;;;;;;;9.27;5.45;;;;;;;36.57;15.58;99443.25;5050026;28;20131;-51
2021/09/12 11:29:38;;;;;;;6.03;5.00;;;;;;;36.71;15.10;99425.91;5049445;28;20033;-50